createdAt,value
2019-05-02T00:01:01.974Z,0.31
2019-05-02T00:06:10.680Z,0.15
2019-05-02T00:11:19.345Z,0.05
2019-05-02T00:16:28.037Z,0.00
2019-05-02T00:21:38.139Z,0.06
2019-05-02T00:26:44.962Z,0.10
2019-05-02T00:31:53.617Z,0.04
2019-05-02T00:37:02.353Z,0.00
2019-05-02T00:42:12.815Z,0.01
2019-05-02T00:47:17.804Z,0.03
2019-05-02T00:52:26.485Z,0.02
2019-05-02T00:57:35.208Z,0.00
2019-05-02T01:02:43.900Z,0.07
2019-05-02T01:07:55.883Z,0.09
2019-05-02T01:13:00.819Z,0.08
2019-05-02T01:18:09.541Z,0.05
2019-05-02T01:23:18.184Z,0.11
2019-05-02T01:28:26.915Z,0.04
2019-05-02T01:33:36.885Z,0.07
2019-05-02T01:38:44.172Z,0.05
2019-05-02T01:43:54.861Z,0.21
2019-05-02T01:49:01.404Z,0.10
2019-05-02T01:54:11.359Z,0.00
2019-05-02T01:59:18.336Z,0.07
2019-05-02T02:04:26.992Z,0.05
2019-05-02T02:09:38.952Z,0.01
2019-05-02T02:14:48.061Z,0.07
2019-05-02T02:19:52.141Z,0.04
2019-05-02T02:25:02.638Z,0.07
2019-05-02T02:30:09.369Z,0.09
2019-05-02T02:35:18.018Z,0.33
2019-05-02T02:40:33.742Z,0.05
2019-05-02T02:45:27.466Z,0.09
2019-05-02T02:50:36.687Z,0.08
2019-05-02T02:55:44.439Z,0.05
2019-05-02T03:00:53.493Z,0.39
2019-05-02T03:06:08.175Z,0.01
2019-05-02T03:11:04.437Z,0.24
2019-05-02T03:16:13.099Z,0.35
2019-05-02T03:21:24.305Z,0.13
2019-05-02T03:26:22.913Z,0.24
2019-05-02T03:31:31.827Z,0.18
2019-05-02T03:36:40.295Z,0.51
2019-05-02T03:41:55.611Z,0.52
2019-05-02T03:47:01.903Z,0.67
2019-05-02T03:52:06.879Z,0.49
2019-05-02T03:57:15.530Z,0.37
2019-05-02T04:02:25.182Z,0.28
2019-05-02T04:07:40.858Z,0.48
2019-05-02T04:12:36.089Z,0.67
2019-05-02T04:17:44.731Z,0.10
2019-05-02T04:22:53.516Z,0.11
2019-05-02T04:28:05.964Z,0.49
2019-05-02T04:34:17.876Z,0.32
2019-05-02T04:39:28.445Z,0.72
2019-05-02T04:44:40.694Z,0.39
2019-05-02T04:49:41.720Z,0.39
2019-05-02T04:54:51.441Z,0.55
2019-05-02T05:00:06.110Z,1.14
2019-05-02T05:05:08.423Z,0.95
2019-05-02T05:10:18.503Z,0.99
2019-05-02T05:15:37.141Z,0.46
2019-05-02T05:20:33.616Z,0.75
2019-05-02T05:25:42.310Z,1.31
2019-05-02T05:30:52.167Z,0.89
2019-05-02T05:35:59.546Z,0.73
2019-05-02T05:41:12.716Z,1.44
2019-05-02T05:46:17.815Z,0.54
2019-05-02T05:51:24.661Z,1.32
2019-05-02T05:56:39.756Z,0.68
2019-05-02T06:01:41.881Z,0.24
2019-05-02T06:06:53.924Z,0.86
2019-05-02T06:11:58.935Z,1.18
2019-05-02T06:17:07.636Z,1.39
2019-05-02T06:22:23.901Z,0.56
2019-05-02T06:27:26.050Z,1.29
2019-05-02T06:32:32.716Z,1.33
2019-05-02T06:37:45.331Z,0.47
2019-05-02T06:42:50.032Z,3.37
2019-05-02T06:48:01.129Z,2.53
2019-05-02T06:53:09.648Z,1.60
2019-05-02T06:58:15.273Z,3.90
2019-05-02T07:03:23.925Z,2.29
2019-05-02T07:08:32.688Z,2.61
2019-05-02T07:13:42.216Z,1.40
2019-05-02T07:18:49.754Z,3.18
2019-05-02T07:23:58.153Z,2.35
2019-05-02T07:29:06.857Z,3.65
2019-05-02T07:34:16.705Z,1.34
2019-05-02T07:39:25.412Z,4.71
2019-05-02T07:44:34.552Z,3.09
2019-05-02T07:49:43.893Z,0.91
2019-05-02T07:54:42.530Z,2.85
2019-05-02T07:59:55.079Z,1.26
2019-05-02T08:05:01.151Z,2.21
2019-05-02T08:10:09.877Z,1.42
2019-05-02T08:15:18.525Z,2.10
2019-05-02T08:20:27.270Z,2.80
2019-05-02T08:25:35.909Z,2.72
2019-05-02T08:30:45.408Z,2.00
2019-05-02T08:35:54.127Z,2.47
2019-05-02T08:41:02.785Z,0.66
2019-05-02T08:46:14.556Z,0.92
2019-05-02T08:51:31.707Z,1.87
2019-05-02T08:56:21.524Z,1.05
2019-05-02T09:01:35.386Z,1.79
2019-05-02T09:06:37.221Z,0.31
2019-05-02T09:11:57.584Z,1.06
2019-05-02T09:16:54.535Z,2.02
2019-05-02T09:22:07.647Z,2.15
2019-05-02T09:27:11.879Z,1.46
2019-05-02T09:32:22.843Z,0.89
2019-05-02T09:37:31.968Z,1.40
2019-05-02T09:42:38.245Z,0.75
2019-05-02T09:52:57.048Z,0.62
2019-05-02T09:57:55.875Z,1.02
2019-05-02T10:03:04.746Z,0.96
2019-05-02T10:08:13.811Z,1.61
2019-05-02T10:13:22.983Z,1.19
2019-05-02T10:18:32.983Z,1.26
2019-05-02T10:23:42.602Z,0.76
2019-05-02T10:28:50.541Z,0.69
2019-05-02T10:33:57.028Z,1.58
2019-05-02T10:39:05.951Z,1.32
2019-05-02T10:44:15.783Z,0.94
2019-05-02T10:49:24.579Z,2.10
2019-05-02T10:54:37.316Z,1.58
2019-05-02T10:59:42.169Z,0.91
2019-05-02T11:04:52.329Z,1.38
2019-05-02T11:10:03.240Z,1.34
2019-05-02T11:15:08.289Z,1.21
2019-05-02T11:20:06.937Z,1.05
2019-05-02T11:25:15.783Z,1.51
2019-05-02T11:30:26.578Z,1.61
2019-05-02T11:35:33.161Z,0.82
2019-05-02T11:40:44.138Z,1.77
2019-05-02T11:45:44.561Z,1.57
2019-05-02T11:50:43.347Z,0.68
2019-05-02T11:55:53.261Z,1.07
2019-05-02T12:01:07.903Z,1.50
2019-05-02T12:06:11.125Z,0.59
2019-05-02T12:11:17.730Z,0.82
2019-05-02T12:16:25.756Z,2.24
2019-05-02T12:21:24.400Z,1.09
2019-05-02T12:26:33.285Z,1.55
2019-05-02T12:31:47.195Z,1.63
2019-05-02T12:36:52.354Z,2.36
2019-05-02T12:41:49.487Z,0.87
2019-05-02T12:46:57.603Z,1.65
2019-05-02T12:52:06.401Z,1.42
2019-05-02T12:57:15.253Z,2.23
2019-05-02T13:02:23.992Z,0.58
2019-05-02T13:07:33.013Z,1.23
2019-05-02T13:12:41.991Z,1.50
2019-05-02T13:18:57.179Z,1.23
2019-05-02T13:24:10.512Z,2.03
2019-05-02T13:29:13.437Z,0.77
2019-05-02T13:34:22.204Z,0.76
2019-05-02T13:39:32.542Z,1.03
2019-05-02T13:44:43.313Z,1.45
2019-05-02T13:49:53.272Z,0.40
2019-05-02T13:54:52.133Z,1.18
2019-05-02T13:59:58.715Z,1.18
2019-05-02T14:05:07.389Z,0.62
2019-05-02T14:10:16.194Z,1.65
2019-05-02T14:15:24.837Z,1.23
2019-05-02T14:20:33.618Z,1.01
2019-05-02T14:25:42.666Z,1.36
2019-05-02T14:30:52.507Z,1.51
2019-05-02T14:35:59.153Z,0.89
2019-05-02T14:41:07.953Z,1.66
2019-05-02T14:46:17.755Z,1.27
2019-05-02T14:51:27.416Z,1.85
2019-05-02T14:56:32.875Z,0.26
2019-05-02T15:01:41.991Z,1.14
2019-05-02T15:06:48.294Z,0.50
2019-05-02T15:11:57.103Z,0.70
2019-05-02T15:17:05.785Z,0.32
2019-05-02T15:22:14.585Z,0.52
2019-05-02T15:27:23.248Z,0.46
2019-05-02T15:32:32.444Z,0.10
2019-05-02T15:37:41.736Z,0.56
2019-05-02T15:42:48.974Z,0.55
2019-05-02T15:47:57.617Z,1.22
2019-05-02T15:53:09.927Z,0.15
2019-05-02T15:58:16.849Z,0.41
2019-05-02T16:03:22.988Z,0.68
2019-05-02T16:08:32.585Z,0.07
2019-05-02T16:13:40.061Z,0.08
2019-05-02T16:18:49.164Z,0.00
2019-05-02T16:24:04.257Z,0.00
2019-05-02T16:29:06.221Z,0.02
2019-05-02T16:34:16.750Z,0.08
2019-05-02T16:39:15.596Z,0.38
2019-05-02T16:44:24.159Z,0.01
2019-05-02T16:49:33.013Z,0.18
2019-05-02T16:54:43.835Z,0.13
2019-05-02T16:59:42.552Z,0.17
2019-05-02T17:04:54.193Z,0.17
2019-05-02T17:09:58.720Z,0.28
2019-05-02T17:15:07.936Z,0.03
2019-05-02T17:20:16.810Z,0.67
2019-05-02T17:25:25.408Z,0.31
2019-05-02T17:30:38.641Z,0.04
2019-05-02T17:35:49.632Z,0.14
2019-05-02T17:40:54.115Z,0.10
2019-05-02T17:45:59.030Z,0.05
2019-05-02T17:51:07.686Z,0.07
2019-05-02T17:56:20.432Z,0.01
2019-05-02T18:01:26.517Z,0.00
2019-05-02T18:06:35.483Z,0.00
2019-05-02T18:11:42.415Z,0.00
2019-05-02T18:16:51.941Z,0.00
2019-05-02T18:22:02.490Z,0.00
2019-05-02T18:27:06.725Z,0.00
2019-05-02T18:32:17.451Z,0.35
2019-05-02T18:37:23.850Z,0.01
2019-05-02T18:42:33.436Z,0.70
2019-05-02T18:47:49.150Z,0.00
2019-05-02T18:52:49.310Z,0.01
2019-05-02T18:57:57.065Z,0.00
2019-05-02T19:03:07.518Z,0.00
2019-05-02T19:08:12.140Z,0.00
2019-05-02T19:13:20.003Z,0.01
2019-05-02T19:18:28.356Z,0.00
2019-05-02T19:23:37.551Z,0.00
2019-05-02T19:28:46.332Z,0.00
2019-05-02T19:33:55.019Z,0.00
2019-05-02T19:39:09.560Z,0.00
2019-05-02T19:44:15.284Z,0.00
2019-05-02T19:49:23.066Z,0.05
2019-05-02T19:54:33.538Z,0.00
2019-05-02T19:59:38.477Z,0.00
2019-05-02T20:04:47.165Z,0.00
2019-05-02T20:09:55.973Z,0.07
2019-05-02T20:15:04.656Z,0.00
2019-05-02T20:20:13.466Z,0.00
2019-05-02T20:25:22.807Z,0.00
2019-05-02T20:30:30.536Z,0.00
2019-05-02T20:35:39.185Z,0.17
2019-05-02T20:40:47.953Z,0.00
2019-05-02T20:45:59.602Z,0.00
2019-05-02T20:50:58.390Z,0.05
2019-05-02T20:56:07.031Z,0.08
2019-05-02T21:01:15.872Z,0.02
2019-05-02T21:06:37.414Z,0.09
2019-05-02T21:11:32.833Z,0.04
2019-05-02T21:16:41.506Z,0.00
2019-05-02T21:21:52.489Z,0.00
2019-05-02T21:26:58.514Z,0.10
2019-05-02T21:33:13.438Z,0.01
2019-05-02T21:38:22.612Z,0.03
2019-05-02T21:43:31.709Z,0.02
2019-05-02T21:48:38.696Z,0.00
2019-05-02T21:53:54.983Z,0.08
2019-05-02T21:58:55.778Z,0.19
2019-05-02T22:04:04.604Z,0.04
2019-05-02T22:09:13.244Z,0.23
2019-05-02T22:14:22.494Z,0.19
2019-05-02T22:19:32.169Z,0.04
2019-05-02T22:24:38.591Z,0.03
2019-05-02T22:29:47.257Z,0.06
2019-05-02T22:34:56.054Z,0.06
2019-05-02T22:40:04.750Z,0.02
2019-05-02T22:45:13.530Z,0.18
2019-05-02T22:50:22.177Z,0.19
2019-05-02T22:55:32.011Z,0.09
2019-05-02T23:00:42.244Z,0.15
2019-05-02T23:05:42.171Z,0.01
2019-05-02T23:10:49.183Z,0.05
2019-05-02T23:15:58.006Z,0.12
2019-05-02T23:21:06.677Z,0.15
2019-05-02T23:26:15.421Z,0.19
2019-05-02T23:31:24.105Z,0.07
2019-05-02T23:36:32.952Z,0.28
2019-05-02T23:41:42.126Z,0.05
2019-05-02T23:46:51.508Z,0.30
2019-05-02T23:51:58.141Z,0.05
2019-05-02T23:57:06.895Z,0.04
